Terminal Aerodrome Forecast
Issued by NWS

Home | Current Version | Previous Version | Text Only | Print | Product List | Glossary On
Versions: 1 2 3 4 5 6 7 8 9 10 11 12 13 14 15
033
FTUS43 KMQT 290534
TAFCMX
TAF
KCMX 290534Z 2906/3006 05004KT P6SM SCT200
     FM291100 09005KT P6SM SCT007
     FM291600 11008KT P6SM SCT200
     FM292100 10009KT P6SM BKN200=

USA.gov is the U.S. government's official web portal to all federal, state and local government web resources and services.